createdAt,value
2022-12-04T00:01:30.790Z,55.19
2022-12-04T00:06:33.927Z,55.24
2022-12-04T00:11:35.728Z,55.79
2022-12-04T00:16:37.351Z,55.63
2022-12-04T00:21:39.190Z,55.36
2022-12-04T00:26:40.767Z,55.64
2022-12-04T00:31:42.401Z,55.38
2022-12-04T00:36:44.232Z,55.15
2022-12-04T00:41:45.780Z,55.31
2022-12-04T00:46:47.273Z,55.71
2022-12-04T00:51:48.856Z,55.48
2022-12-04T00:56:50.459Z,55.74
2022-12-04T01:01:51.980Z,55.55
2022-12-04T01:06:53.500Z,55.77
2022-12-04T01:11:55.040Z,55.51
2022-12-04T01:16:56.969Z,55.46
2022-12-04T01:21:58.682Z,55.99
2022-12-04T01:27:00.229Z,56.12
2022-12-04T01:32:01.860Z,55.67
2022-12-04T01:37:03.551Z,55.86
2022-12-04T01:42:05.217Z,55.72
2022-12-04T01:47:06.833Z,55.81
2022-12-04T01:52:25.057Z,56.03
2022-12-04T01:57:31.810Z,55.48
2022-12-04T02:02:36.496Z,55.81
2022-12-04T02:07:40.077Z,55.75
2022-12-04T02:13:15.873Z,55.83
2022-12-04T02:18:41.042Z,56.05
2022-12-04T02:24:07.441Z,55.90
2022-12-04T02:29:17.370Z,56.38
2022-12-04T02:34:27.026Z,56.36
2022-12-04T02:39:41.390Z,55.81
2022-12-04T02:44:47.341Z,56.26
2022-12-04T02:49:59.814Z,56.09
2022-12-04T02:55:08.783Z,56.05
2022-12-04T03:00:11.541Z,56.57
2022-12-04T03:05:24.966Z,56.81
2022-12-04T03:10:32.892Z,56.75
2022-12-04T03:15:41.667Z,56.83
2022-12-04T03:20:47.384Z,56.69
2022-12-04T03:26:16.965Z,56.48
2022-12-04T03:31:28.935Z,56.68
2022-12-04T03:36:46.376Z,56.64
2022-12-04T03:42:07.489Z,56.53
2022-12-04T03:47:19.664Z,56.66
2022-12-04T03:52:24.648Z,56.52
2022-12-04T03:57:32.261Z,56.35
2022-12-04T04:02:38.587Z,56.61
2022-12-04T04:08:21.391Z,56.51
2022-12-04T04:13:46.728Z,56.68
2022-12-04T04:19:09.389Z,56.61
2022-12-04T04:24:25.914Z,56.59
2022-12-04T04:29:27.757Z,57.10
2022-12-04T04:34:36.989Z,56.27
2022-12-04T04:40:17.616Z,56.33
2022-12-04T04:45:28.649Z,56.25
2022-12-04T04:50:33.105Z,56.89
2022-12-04T04:55:36.088Z,56.63
2022-12-04T05:00:39.271Z,56.87
2022-12-04T05:05:40.806Z,56.39
2022-12-04T05:10:42.566Z,56.45
2022-12-04T05:15:44.314Z,57.02
2022-12-04T05:20:45.944Z,56.86
2022-12-04T05:25:47.489Z,56.78
2022-12-04T05:30:58.386Z,56.85
2022-12-04T05:36:03.300Z,56.69
2022-12-04T05:41:06.233Z,56.62
2022-12-04T05:46:08.860Z,56.79
2022-12-04T05:51:10.866Z,56.10
2022-12-04T05:56:12.403Z,56.49
2022-12-04T06:01:18.362Z,56.49
2022-12-04T06:06:23.765Z,56.48
2022-12-04T06:11:29.363Z,57.14
2022-12-04T06:16:35.200Z,56.77
2022-12-04T06:21:38.861Z,57.21
2022-12-04T06:26:57.556Z,56.99
2022-12-04T06:32:02.314Z,57.11
2022-12-04T06:37:03.953Z,56.88
2022-12-04T06:42:05.528Z,56.88
2022-12-04T06:47:08.527Z,56.78
2022-12-04T06:52:10.227Z,56.80
2022-12-04T06:57:11.709Z,57.16
2022-12-04T07:02:18.278Z,56.87
2022-12-04T07:07:25.165Z,56.98
2022-12-04T07:12:29.188Z,56.97
2022-12-04T07:17:30.689Z,56.96
2022-12-04T07:22:35.952Z,57.32
2022-12-04T07:27:37.558Z,57.39
2022-12-04T07:32:42.759Z,57.22
2022-12-04T07:37:50.077Z,57.36
2022-12-04T07:42:53.941Z,57.15
2022-12-04T07:47:57.938Z,57.25
2022-12-04T07:53:01.515Z,57.70
2022-12-04T07:58:03.028Z,57.58
2022-12-04T08:03:07.520Z,57.25
2022-12-04T08:08:09.805Z,57.33
2022-12-04T08:13:14.228Z,57.98
2022-12-04T08:18:20.752Z,57.37
2022-12-04T08:23:31.268Z,57.85
2022-12-04T08:28:36.461Z,57.73
2022-12-04T08:33:41.295Z,57.82
2022-12-04T08:38:51.018Z,57.86
2022-12-04T08:43:59.567Z,57.58
2022-12-04T08:49:06.699Z,57.51
2022-12-04T08:54:08.985Z,58.17
2022-12-04T08:59:13.305Z,58.08
2022-12-04T09:04:18.479Z,57.64
2022-12-04T09:09:20.074Z,57.50
2022-12-04T09:14:25.716Z,57.57
2022-12-04T09:19:27.369Z,57.76
2022-12-04T09:24:34.817Z,57.98
2022-12-04T09:29:42.588Z,57.76
2022-12-04T09:34:52.664Z,58.18
2022-12-04T09:39:55.773Z,58.26
2022-12-04T09:45:21.321Z,58.60
2022-12-04T09:50:31.756Z,58.31
2022-12-04T09:55:58.518Z,58.34
2022-12-04T10:01:11.874Z,58.22
2022-12-04T10:06:29.469Z,58.41
2022-12-04T10:11:49.126Z,58.04
2022-12-04T10:17:33.120Z,58.40
2022-12-04T10:22:56.764Z,58.19
2022-12-04T10:28:04.376Z,58.39
2022-12-04T10:33:19.192Z,58.26
2022-12-04T10:38:47.756Z,58.68
2022-12-04T10:43:51.651Z,58.61
2022-12-04T10:49:21.212Z,58.57
2022-12-04T10:54:35.397Z,58.28
2022-12-04T10:59:58.925Z,58.61
2022-12-04T11:05:05.056Z,58.92
2022-12-04T11:10:33.129Z,58.60
2022-12-04T11:15:49.272Z,58.64
2022-12-04T11:21:03.546Z,58.81
2022-12-04T11:26:13.202Z,58.91
2022-12-04T11:31:20.928Z,59.02
2022-12-04T11:36:30.417Z,59.27
2022-12-04T11:41:40.398Z,58.95
2022-12-04T11:46:56.969Z,58.68
2022-12-04T11:52:26.692Z,58.58
2022-12-04T11:57:42.699Z,58.83
2022-12-04T12:03:09.915Z,59.10
2022-12-04T12:08:36.075Z,58.87
2022-12-04T12:13:53.468Z,58.71
2022-12-04T12:19:42.402Z,59.32
2022-12-04T12:24:55.099Z,59.55
2022-12-04T12:30:01.967Z,59.24
2022-12-04T12:35:22.137Z,59.43
2022-12-04T12:40:49.442Z,59.59
2022-12-04T12:46:15.780Z,59.37
2022-12-04T12:51:40.572Z,59.24
2022-12-04T12:56:50.977Z,59.35
2022-12-04T13:02:33.938Z,59.11
2022-12-04T13:08:00.232Z,58.97
2022-12-04T13:13:22.478Z,58.97
2022-12-04T13:18:30.593Z,58.97
2022-12-04T13:24:04.075Z,58.70
2022-12-04T13:29:25.613Z,58.69
2022-12-04T13:34:56.365Z,58.57
2022-12-04T13:40:09.140Z,58.68
2022-12-04T13:45:23.467Z,58.45
2022-12-04T13:50:38.824Z,58.42
2022-12-04T13:55:45.731Z,58.46
2022-12-04T14:01:03.857Z,58.56
2022-12-04T14:06:26.857Z,58.67
2022-12-04T14:11:33.080Z,58.57
2022-12-04T14:16:49.061Z,58.62
2022-12-04T14:21:55.119Z,58.87
2022-12-04T14:27:11.117Z,59.24
2022-12-04T14:32:25.761Z,59.00
2022-12-04T14:37:50.927Z,58.69
2022-12-04T14:42:55.107Z,58.97
2022-12-04T14:48:22.283Z,58.82
2022-12-04T14:53:33.346Z,58.80
2022-12-04T14:58:44.094Z,58.73
2022-12-04T15:03:48.851Z,58.41
2022-12-04T15:09:21.783Z,58.82
2022-12-04T15:14:25.734Z,58.75
2022-12-04T15:19:36.180Z,58.38
2022-12-04T15:24:40.514Z,58.62
2022-12-04T15:29:52.837Z,58.81
2022-12-04T15:35:05.303Z,58.52
2022-12-04T15:40:24.879Z,58.36
2022-12-04T15:45:34.285Z,58.40
2022-12-04T15:50:37.899Z,58.57
2022-12-04T15:55:53.107Z,58.46
2022-12-04T16:01:10.743Z,58.69
2022-12-04T16:06:22.192Z,58.73
2022-12-04T16:11:43.765Z,58.31
2022-12-04T16:16:50.383Z,58.65
2022-12-04T16:22:03.746Z,58.55
2022-12-04T16:27:20.024Z,58.49
2022-12-04T16:32:31.848Z,58.54
2022-12-04T16:37:40.641Z,58.37
2022-12-04T16:42:48.035Z,58.43
2022-12-04T16:48:02.470Z,58.30
2022-12-04T16:53:13.715Z,58.22
2022-12-04T16:58:16.420Z,58.36
2022-12-04T17:03:26.964Z,58.27
2022-12-04T17:08:36.154Z,58.43
2022-12-04T17:13:42.435Z,58.62
2022-12-04T17:18:56.235Z,58.41
2022-12-04T17:24:03.445Z,58.35
2022-12-04T17:29:13.231Z,58.57
2022-12-04T17:34:16.109Z,58.36
2022-12-04T17:39:22.376Z,58.28
2022-12-04T17:44:29.486Z,58.32
2022-12-04T17:49:31.337Z,58.49
2022-12-04T17:54:34.303Z,58.52
2022-12-04T17:59:38.018Z,58.27
2022-12-04T18:04:44.478Z,58.67
2022-12-04T18:09:48.157Z,58.43
2022-12-04T18:14:58.217Z,58.35
2022-12-04T18:20:04.312Z,58.16
2022-12-04T18:25:09.785Z,58.42
2022-12-04T18:30:13.778Z,58.28
2022-12-04T18:35:21.465Z,58.43
2022-12-04T18:40:23.041Z,58.39
2022-12-04T18:45:26.724Z,58.28
2022-12-04T18:50:30.798Z,58.07
2022-12-04T18:55:37.401Z,58.16
2022-12-04T19:00:46.396Z,58.22
2022-12-04T19:05:53.525Z,58.36
2022-12-04T19:10:56.110Z,58.48
2022-12-04T19:16:10.340Z,58.65
2022-12-04T19:21:17.320Z,58.30
2022-12-04T19:26:18.983Z,58.36
2022-12-04T19:31:30.753Z,58.28
2022-12-04T19:36:33.842Z,58.51
2022-12-04T19:41:42.739Z,58.17
2022-12-04T19:46:46.742Z,58.31
2022-12-04T19:51:50.381Z,58.35
2022-12-04T19:56:59.550Z,58.34
2022-12-04T20:02:06.117Z,58.33
2022-12-04T20:07:10.005Z,58.30
2022-12-04T20:12:22.810Z,58.39
2022-12-04T20:17:32.513Z,58.31
2022-12-04T20:22:36.964Z,58.33
2022-12-04T20:27:42.816Z,58.17
2022-12-04T20:32:48.929Z,58.49
2022-12-04T20:37:57.605Z,58.21
2022-12-04T20:43:03.008Z,58.16
2022-12-04T20:48:07.863Z,58.35
2022-12-04T20:53:14.322Z,58.25
2022-12-04T20:58:23.948Z,58.15
2022-12-04T21:03:25.502Z,58.45
2022-12-04T21:08:53.425Z,58.61
2022-12-04T21:14:17.621Z,58.03
2022-12-04T21:19:21.352Z,58.35
2022-12-04T21:24:36.927Z,58.52
2022-12-04T21:29:48.143Z,58.35
2022-12-04T21:34:50.132Z,58.24
2022-12-04T21:39:51.742Z,58.18
2022-12-04T21:44:58.116Z,58.18
2022-12-04T21:50:02.154Z,58.08
2022-12-04T21:55:06.544Z,58.08
2022-12-04T22:00:11.836Z,58.39
2022-12-04T22:05:20.914Z,58.25
2022-12-04T22:10:26.094Z,58.48
2022-12-04T22:15:41.349Z,58.06
2022-12-04T22:20:49.848Z,58.42
2022-12-04T22:25:56.457Z,58.22
2022-12-04T22:31:04.483Z,58.07
2022-12-04T22:36:20.712Z,58.30
2022-12-04T22:41:23.928Z,58.05
2022-12-04T22:46:27.957Z,57.99
2022-12-04T22:51:34.314Z,58.09
2022-12-04T22:56:39.221Z,58.11
2022-12-04T23:01:47.482Z,58.25
2022-12-04T23:06:51.384Z,58.25
2022-12-04T23:11:54.701Z,58.04
2022-12-04T23:17:05.191Z,58.13
2022-12-04T23:22:14.605Z,58.26
2022-12-04T23:27:23.435Z,58.07
2022-12-04T23:32:27.677Z,58.29
2022-12-04T23:37:37.504Z,58.38
2022-12-04T23:42:44.742Z,58.36
2022-12-04T23:47:48.468Z,57.91
2022-12-04T23:52:50.536Z,58.34
2022-12-04T23:57:57.496Z,58.04
